createdAt,value
2023-01-13T00:00:43.040Z,7.20
2023-01-13T00:06:06.076Z,9.20
2023-01-13T00:11:16.253Z,7.30
2023-01-13T00:16:26.116Z,7.90
2023-01-13T00:21:36.859Z,8.00
2023-01-13T00:26:46.693Z,5.70
2023-01-13T00:31:56.430Z,8.20
2023-01-13T00:37:06.114Z,8.80
2023-01-13T00:42:34.002Z,6.90
2023-01-13T00:47:43.725Z,9.20
2023-01-13T00:52:53.473Z,5.80
2023-01-13T00:58:04.857Z,7.60
2023-01-13T01:03:14.756Z,7.10
2023-01-13T01:08:24.602Z,8.60
2023-01-13T01:13:34.637Z,8.30
2023-01-13T01:18:47.086Z,9.10
2023-01-13T01:23:57.325Z,8.50
2023-01-13T01:29:07.261Z,10.70
2023-01-13T01:34:17.334Z,8.20
2023-01-13T01:39:27.616Z,8.50
2023-01-13T01:45:03.979Z,7.00
2023-01-13T01:50:15.555Z,7.70
2023-01-13T01:55:32.155Z,7.80
2023-01-13T02:00:42.201Z,9.10
2023-01-13T02:05:52.384Z,9.00
2023-01-13T02:11:02.277Z,8.60
2023-01-13T02:16:22.998Z,8.90
2023-01-13T02:22:14.661Z,7.90
2023-01-13T02:27:59.002Z,7.30
2023-01-13T02:33:36.029Z,8.20
2023-01-13T02:38:58.697Z,7.20
2023-01-13T02:44:12.624Z,6.60
2023-01-13T02:49:33.865Z,7.50
2023-01-13T02:54:51.448Z,6.90
2023-01-13T03:00:02.928Z,6.60
2023-01-13T03:05:16.487Z,5.60
2023-01-13T03:10:39.316Z,4.30
2023-01-13T03:16:05.192Z,5.90
2023-01-13T03:21:27.020Z,6.40
2023-01-13T03:26:45.543Z,5.60
2023-01-13T03:32:04.633Z,5.50
2023-01-13T03:37:19.967Z,5.40
2023-01-13T03:42:35.195Z,5.30
2023-01-13T03:47:53.484Z,7.70
2023-01-13T03:53:09.410Z,7.60
2023-01-13T03:58:24.874Z,5.60
2023-01-13T04:03:42.702Z,9.30
2023-01-13T04:09:00.193Z,8.70
2023-01-13T04:14:13.600Z,6.20
2023-01-13T04:19:23.435Z,6.80
2023-01-13T04:24:33.071Z,7.30
2023-01-13T04:29:42.660Z,6.20
2023-01-13T04:34:52.360Z,7.70
2023-01-13T04:40:02.158Z,6.70
2023-01-13T04:45:14.424Z,6.90
2023-01-13T04:50:24.527Z,5.10
2023-01-13T04:55:34.431Z,7.10
2023-01-13T05:00:44.578Z,10.40
2023-01-13T05:05:57.820Z,7.50
2023-01-13T05:11:28.171Z,9.20
2023-01-13T05:16:56.194Z,6.70
2023-01-13T05:22:24.564Z,9.70
2023-01-13T05:27:35.044Z,7.90
2023-01-13T05:32:44.763Z,8.80
2023-01-13T05:37:55.933Z,9.20
2023-01-13T05:43:23.160Z,8.00
2023-01-13T05:48:35.384Z,7.30
2023-01-13T05:53:45.095Z,6.40
2023-01-13T05:58:54.715Z,7.50
2023-01-13T06:04:04.751Z,6.70
2023-01-13T06:09:14.535Z,7.20
2023-01-13T06:14:24.160Z,7.50
2023-01-13T06:19:33.940Z,7.60
2023-01-13T06:24:43.557Z,7.80
2023-01-13T06:29:53.740Z,6.70
2023-01-13T06:35:09.629Z,6.10
2023-01-13T06:40:22.812Z,7.90
2023-01-13T06:45:34.357Z,7.30
2023-01-13T06:50:47.118Z,6.60
2023-01-13T06:55:56.880Z,7.00
2023-01-13T07:01:07.346Z,8.10
2023-01-13T07:06:17.377Z,9.00
2023-01-13T07:11:27.350Z,7.10
2023-01-13T07:16:37.152Z,8.00
2023-01-13T07:21:46.994Z,7.20
2023-01-13T07:26:57.412Z,7.80
2023-01-13T07:32:08.206Z,8.60
2023-01-13T07:37:18.123Z,5.90
2023-01-13T07:42:45.213Z,8.40
2023-01-13T07:47:57.747Z,6.00
2023-01-13T07:53:07.839Z,7.20
2023-01-13T07:58:17.790Z,8.50
2023-01-13T08:03:28.643Z,6.20
2023-01-13T08:08:38.511Z,7.50
2023-01-13T08:13:48.205Z,8.80
2023-01-13T08:18:59.885Z,7.50
2023-01-13T08:24:16.236Z,8.00
2023-01-13T08:29:26.361Z,13.10
2023-01-13T08:34:38.281Z,8.40
2023-01-13T08:39:48.676Z,8.10
2023-01-13T08:44:58.844Z,8.10
2023-01-13T08:50:11.029Z,7.60
2023-01-13T08:55:21.138Z,10.80
2023-01-13T09:00:31.396Z,14.30
2023-01-13T09:05:41.988Z,32.60
2023-01-13T09:10:52.217Z,30.10
2023-01-13T09:16:01.995Z,33.20
2023-01-13T09:21:14.092Z,23.90
2023-01-13T09:26:25.493Z,39.20
2023-01-13T09:31:35.709Z,32.40
2023-01-13T09:36:45.444Z,20.80
2023-01-13T09:42:17.755Z,25.30
2023-01-13T09:47:41.600Z,17.20
2023-01-13T09:52:51.450Z,16.00
2023-01-13T09:58:02.706Z,11.10
2023-01-13T10:03:26.632Z,11.00
2023-01-13T10:08:41.238Z,9.60
2023-01-13T10:13:54.086Z,8.90
2023-01-13T10:19:18.222Z,7.30
2023-01-13T10:24:50.408Z,9.30
2023-01-13T10:30:01.066Z,14.60
2023-01-13T10:35:11.766Z,12.10
2023-01-13T10:40:27.067Z,12.10
2023-01-13T10:45:36.813Z,10.90
2023-01-13T10:50:50.254Z,16.40
2023-01-13T10:56:06.636Z,9.80
2023-01-13T11:01:27.444Z,9.10
2023-01-13T11:06:37.935Z,8.50
2023-01-13T11:11:51.117Z,7.40
2023-01-13T11:17:10.533Z,6.70
2023-01-13T11:22:25.577Z,9.20
2023-01-13T11:27:46.277Z,7.10
2023-01-13T11:33:42.594Z,7.10
2023-01-13T11:38:57.878Z,7.00
2023-01-13T11:44:22.208Z,7.30
2023-01-13T11:49:35.539Z,9.00
2023-01-13T11:55:18.489Z,8.50
2023-01-13T12:00:38.482Z,12.70
2023-01-13T12:06:04.636Z,10.40
2023-01-13T12:11:23.464Z,8.70
2023-01-13T12:16:34.528Z,10.90
2023-01-13T12:22:07.176Z,9.70
2023-01-13T12:27:26.179Z,8.60
2023-01-13T12:32:42.200Z,10.70
2023-01-13T12:38:04.491Z,10.00
2023-01-13T12:43:42.563Z,9.10
2023-01-13T12:49:22.600Z,7.90
2023-01-13T12:55:18.694Z,10.10
2023-01-13T13:00:38.531Z,8.90
2023-01-13T13:06:01.160Z,8.70
2023-01-13T13:11:53.738Z,9.20
2023-01-13T13:17:03.696Z,9.30
2023-01-13T13:22:39.459Z,9.30
2023-01-13T13:28:07.978Z,9.50
2023-01-13T13:33:43.735Z,8.20
2023-01-13T13:39:38.880Z,10.80
2023-01-13T13:45:10.340Z,11.00
2023-01-13T13:50:22.284Z,9.70
2023-01-13T13:55:33.786Z,9.80
2023-01-13T14:00:48.943Z,11.00
2023-01-13T14:06:03.000Z,9.00
2023-01-13T14:11:33.001Z,13.30
2023-01-13T14:16:43.738Z,9.30
2023-01-13T14:21:55.105Z,11.90
2023-01-13T14:27:19.885Z,9.80
2023-01-13T14:32:36.747Z,10.70
2023-01-13T14:37:49.431Z,11.30
2023-01-13T14:43:15.916Z,11.70
2023-01-13T14:48:37.015Z,8.30
2023-01-13T14:53:49.216Z,12.80
2023-01-13T14:58:58.991Z,12.70
2023-01-13T15:04:34.828Z,10.20
2023-01-13T15:09:46.985Z,10.70
2023-01-13T15:21:09.731Z,9.40
2023-01-13T15:26:28.206Z,12.90
2023-01-13T15:31:37.898Z,10.20
2023-01-13T15:36:47.835Z,13.00
2023-01-13T15:42:15.888Z,11.60
2023-01-13T15:47:28.784Z,18.40
2023-01-13T15:52:38.400Z,15.10
2023-01-13T15:57:51.978Z,10.50
2023-01-13T16:03:02.010Z,20.00
2023-01-13T16:08:17.629Z,16.50
2023-01-13T16:13:27.667Z,13.50
2023-01-13T16:18:37.397Z,13.30
2023-01-13T16:23:47.358Z,15.50
2023-01-13T16:28:59.338Z,12.80
2023-01-13T16:34:09.424Z,9.50
2023-01-13T16:39:25.865Z,11.00
2023-01-13T16:44:35.820Z,9.40
2023-01-13T16:49:46.190Z,11.90
2023-01-13T16:54:55.943Z,11.60
2023-01-13T17:00:06.866Z,13.80
2023-01-13T17:05:17.901Z,13.10
2023-01-13T17:10:28.577Z,19.50
2023-01-13T17:15:38.384Z,15.40
2023-01-13T17:20:47.980Z,13.90
2023-01-13T17:25:58.037Z,17.20
2023-01-13T17:31:08.142Z,18.40
2023-01-13T17:36:17.946Z,14.70
2023-01-13T17:41:29.063Z,14.00
2023-01-13T17:46:38.715Z,14.30
2023-01-13T17:51:48.827Z,7.90
2023-01-13T17:56:58.456Z,8.70
2023-01-13T18:02:08.567Z,9.80
2023-01-13T18:07:18.753Z,7.90
2023-01-13T18:12:28.544Z,7.00
2023-01-13T18:17:38.378Z,6.30
2023-01-13T18:23:05.589Z,5.90
2023-01-13T18:28:16.897Z,6.50
2023-01-13T18:33:27.269Z,10.70
2023-01-13T18:38:36.998Z,13.00
2023-01-13T18:43:46.778Z,16.10
2023-01-13T18:48:56.963Z,15.10
2023-01-13T18:54:07.096Z,18.60
2023-01-13T18:59:16.677Z,15.30
2023-01-13T19:04:26.518Z,13.50
2023-01-13T19:09:36.340Z,17.30
2023-01-13T19:14:46.521Z,20.50
2023-01-13T19:19:59.310Z,11.60
2023-01-13T19:25:10.404Z,14.50
2023-01-13T19:30:20.990Z,12.70
2023-01-13T19:35:30.584Z,12.20
2023-01-13T19:40:39.906Z,11.20
2023-01-13T19:45:52.046Z,8.80
2023-01-13T19:51:04.027Z,14.00
2023-01-13T19:56:17.947Z,11.10
2023-01-13T20:01:32.281Z,10.40
2023-01-13T20:06:42.257Z,7.30
2023-01-13T20:11:54.545Z,7.40
2023-01-13T20:17:04.539Z,6.30
2023-01-13T20:22:15.352Z,7.00
2023-01-13T20:27:25.330Z,6.10
2023-01-13T20:32:35.463Z,6.80
2023-01-13T20:37:46.481Z,6.50
2023-01-13T20:42:57.016Z,9.50
2023-01-13T20:48:07.740Z,6.10
2023-01-13T20:53:17.737Z,7.80
2023-01-13T20:58:27.493Z,6.30
2023-01-13T21:03:37.578Z,10.50
2023-01-13T21:08:48.002Z,26.60
2023-01-13T21:14:14.976Z,16.10
2023-01-13T21:19:24.844Z,10.00
2023-01-13T21:24:35.218Z,9.80
2023-01-13T21:29:46.095Z,8.40
2023-01-13T21:34:55.783Z,7.30
2023-01-13T21:40:06.249Z,8.70
2023-01-13T21:45:34.364Z,9.80
2023-01-13T21:50:45.542Z,9.30
2023-01-13T21:55:56.738Z,9.60
2023-01-13T22:01:10.161Z,10.60
2023-01-13T22:06:21.996Z,13.50
2023-01-13T22:11:32.688Z,8.90
2023-01-13T22:16:50.023Z,9.40
2023-01-13T22:22:00.237Z,10.30
2023-01-13T22:27:10.252Z,9.30
2023-01-13T22:32:21.063Z,8.70
2023-01-13T22:37:30.815Z,8.40
2023-01-13T22:42:44.144Z,11.00
2023-01-13T22:47:53.822Z,8.50
2023-01-13T22:53:03.770Z,9.00
2023-01-13T22:58:13.587Z,8.20
2023-01-13T23:03:24.369Z,9.30
2023-01-13T23:08:34.330Z,27.40
2023-01-13T23:13:44.918Z,48.20
2023-01-13T23:18:55.005Z,25.90
2023-01-13T23:24:05.744Z,21.00
2023-01-13T23:29:16.869Z,30.20
2023-01-13T23:34:26.951Z,63.90
2023-01-13T23:39:36.766Z,23.00
2023-01-13T23:44:46.723Z,29.90
2023-01-13T23:49:56.492Z,31.50
2023-01-13T23:55:06.771Z,37.00
